Henniker, New Hampshire
Current Conditions -  °F | °C
As of 11:09 AM on Wednesday 26 Nov 2014 (Local Time) from KCON Reporting Station
Light Snow Light Snow  
Wind Chill: 30°   Ceiling: 1400
Heat Index: 34°   Visibility: 0.75mi
Dew Point: 30°   Wind: 5mph
Humidity: 85%   Direction: 20°NNE
Pressure: 30.18"   Gusts: NA
Location:  43.19°N, 71.82°W
Report Text: KCON 261609Z AUTO 02004KT 3/4SM -SN BR VV014 01/M01 A3018 RMK AO2 P0002 T00111011
Loading
Personal Weather Stations






























Interactive Weather Map New forecast layout! Learn more

10-Day Weather Forecast

Advertisements
Track Severe Weather on mobile